sensor_id;sensor_type;location;lat;lon;timestamp;temperature;humidity
59855;DHT22;45732;52.850;6.896;2023-12-07T00:01:02;3.30;99.90
59855;DHT22;45732;52.850;6.896;2023-12-07T00:03:27;3.30;99.90
59855;DHT22;45732;52.850;6.896;2023-12-07T00:05:53;3.30;99.90
59855;DHT22;45732;52.850;6.896;2023-12-07T00:08:19;3.30;99.90
59855;DHT22;45732;52.850;6.896;2023-12-07T00:10:44;3.30;99.90
59855;DHT22;45732;52.850;6.896;2023-12-07T00:13:10;3.20;99.90
59855;DHT22;45732;52.850;6.896;2023-12-07T00:15:36;3.20;99.90
59855;DHT22;45732;52.850;6.896;2023-12-07T00:18:02;3.30;99.90
59855;DHT22;45732;52.850;6.896;2023-12-07T00:20:29;3.20;99.90
59855;DHT22;45732;52.850;6.896;2023-12-07T00:22:55;3.20;99.90
59855;DHT22;45732;52.850;6.896;2023-12-07T00:25:21;3.30;99.90
59855;DHT22;45732;52.850;6.896;2023-12-07T00:27:47;3.30;99.90
59855;DHT22;45732;52.850;6.896;2023-12-07T00:30:13;3.30;99.90
59855;DHT22;45732;52.850;6.896;2023-12-07T00:32:39;3.30;99.90
59855;DHT22;45732;52.850;6.896;2023-12-07T00:35:09;3.30;99.90
59855;DHT22;45732;52.850;6.896;2023-12-07T00:37:35;3.30;99.90
59855;DHT22;45732;52.850;6.896;2023-12-07T00:40:00;3.30;99.90
59855;DHT22;45732;52.850;6.896;2023-12-07T00:42:27;3.30;99.90
59855;DHT22;45732;52.850;6.896;2023-12-07T00:44:53;3.30;99.90
59855;DHT22;45732;52.850;6.896;2023-12-07T00:47:19;3.30;99.90
59855;DHT22;45732;52.850;6.896;2023-12-07T00:49:45;3.30;99.90
59855;DHT22;45732;52.850;6.896;2023-12-07T00:52:10;3.30;99.90
59855;DHT22;45732;52.850;6.896;2023-12-07T00:54:36;3.30;99.90
59855;DHT22;45732;52.850;6.896;2023-12-07T00:57:02;3.20;99.90
59855;DHT22;45732;52.850;6.896;2023-12-07T00:59:27;3.30;99.90
59855;DHT22;45732;52.850;6.896;2023-12-07T01:02:00;3.20;99.90
59855;DHT22;45732;52.850;6.896;2023-12-07T01:04:27;3.30;99.90
59855;DHT22;45732;52.850;6.896;2023-12-07T01:06:53;3.30;99.90
59855;DHT22;45732;52.850;6.896;2023-12-07T01:09:19;3.30;99.90
59855;DHT22;45732;52.850;6.896;2023-12-07T01:11:44;3.30;99.90
59855;DHT22;45732;52.850;6.896;2023-12-07T01:14:10;3.10;99.90
59855;DHT22;45732;52.850;6.896;2023-12-07T01:16:37;3.10;99.90
59855;DHT22;45732;52.850;6.896;2023-12-07T01:19:02;3.20;99.90
59855;DHT22;45732;52.850;6.896;2023-12-07T01:21:28;3.10;99.90
59855;DHT22;45732;52.850;6.896;2023-12-07T01:23:54;3.20;99.90
59855;DHT22;45732;52.850;6.896;2023-12-07T01:26:20;3.20;99.90
59855;DHT22;45732;52.850;6.896;2023-12-07T01:28:46;3.10;99.90
59855;DHT22;45732;52.850;6.896;2023-12-07T01:31:12;3.10;99.90
59855;DHT22;45732;52.850;6.896;2023-12-07T01:33:37;3.20;99.90
59855;DHT22;45732;52.850;6.896;2023-12-07T01:36:03;3.20;99.90
59855;DHT22;45732;52.850;6.896;2023-12-07T01:38:29;3.20;99.90
59855;DHT22;45732;52.850;6.896;2023-12-07T01:40:55;3.20;99.90
59855;DHT22;45732;52.850;6.896;2023-12-07T01:43:22;3.20;99.90
59855;DHT22;45732;52.850;6.896;2023-12-07T01:45:48;3.20;99.90
59855;DHT22;45732;52.850;6.896;2023-12-07T01:48:15;3.20;99.90
59855;DHT22;45732;52.850;6.896;2023-12-07T01:50:41;3.20;99.90
59855;DHT22;45732;52.850;6.896;2023-12-07T01:53:07;3.10;99.90
59855;DHT22;45732;52.850;6.896;2023-12-07T01:55:34;3.10;99.90
59855;DHT22;45732;52.850;6.896;2023-12-07T01:57:59;3.10;99.90
59855;DHT22;45732;52.850;6.896;2023-12-07T02:00:26;3.10;99.90
59855;DHT22;45732;52.850;6.896;2023-12-07T02:02:53;3.10;99.90
59855;DHT22;45732;52.850;6.896;2023-12-07T02:05:19;3.10;99.90
59855;DHT22;45732;52.850;6.896;2023-12-07T02:07:45;3.10;99.90
59855;DHT22;45732;52.850;6.896;2023-12-07T02:10:11;3.10;99.90
59855;DHT22;45732;52.850;6.896;2023-12-07T02:12:39;3.20;99.90
59855;DHT22;45732;52.850;6.896;2023-12-07T02:15:05;3.10;99.90
59855;DHT22;45732;52.850;6.896;2023-12-07T02:22:43;3.20;99.90
59855;DHT22;45732;52.850;6.896;2023-12-07T02:25:11;3.20;99.90
59855;DHT22;45732;52.850;6.896;2023-12-07T02:27:42;3.20;99.90
59855;DHT22;45732;52.850;6.896;2023-12-07T02:30:10;3.20;99.90
59855;DHT22;45732;52.850;6.896;2023-12-07T02:32:40;3.10;99.90
59855;DHT22;45732;52.850;6.896;2023-12-07T02:35:07;3.20;99.90
59855;DHT22;45732;52.850;6.896;2023-12-07T02:37:37;3.20;99.90
59855;DHT22;45732;52.850;6.896;2023-12-07T02:40:06;3.20;99.90
59855;DHT22;45732;52.850;6.896;2023-12-07T02:42:39;3.20;99.90
59855;DHT22;45732;52.850;6.896;2023-12-07T02:45:07;3.20;99.90
59855;DHT22;45732;52.850;6.896;2023-12-07T02:47:33;3.20;99.90
59855;DHT22;45732;52.850;6.896;2023-12-07T02:49:59;3.20;99.90
59855;DHT22;45732;52.850;6.896;2023-12-07T02:52:25;3.20;99.90
59855;DHT22;45732;52.850;6.896;2023-12-07T02:54:51;3.20;99.90
59855;DHT22;45732;52.850;6.896;2023-12-07T02:57:16;3.20;99.90
59855;DHT22;45732;52.850;6.896;2023-12-07T02:59:42;3.10;99.90
59855;DHT22;45732;52.850;6.896;2023-12-07T03:02:08;3.10;99.90
59855;DHT22;45732;52.850;6.896;2023-12-07T03:04:33;3.10;99.90
59855;DHT22;45732;52.850;6.896;2023-12-07T03:06:59;3.10;99.90
59855;DHT22;45732;52.850;6.896;2023-12-07T03:09:25;3.10;99.90
59855;DHT22;45732;52.850;6.896;2023-12-07T03:11:51;3.10;99.90
59855;DHT22;45732;52.850;6.896;2023-12-07T03:14:16;3.10;99.90
59855;DHT22;45732;52.850;6.896;2023-12-07T03:16:42;3.10;99.90
59855;DHT22;45732;52.850;6.896;2023-12-07T03:19:07;3.10;99.90
59855;DHT22;45732;52.850;6.896;2023-12-07T03:21:33;3.10;99.90
59855;DHT22;45732;52.850;6.896;2023-12-07T03:23:59;3.10;99.90
59855;DHT22;45732;52.850;6.896;2023-12-07T03:26:24;3.10;99.90
59855;DHT22;45732;52.850;6.896;2023-12-07T03:28:50;3.10;99.90
59855;DHT22;45732;52.850;6.896;2023-12-07T03:31:16;3.10;99.90
59855;DHT22;45732;52.850;6.896;2023-12-07T03:33:42;3.00;99.90
59855;DHT22;45732;52.850;6.896;2023-12-07T03:36:11;3.00;99.90
59855;DHT22;45732;52.850;6.896;2023-12-07T03:38:36;3.00;99.90
59855;DHT22;45732;52.850;6.896;2023-12-07T03:41:02;2.90;99.90
59855;DHT22;45732;52.850;6.896;2023-12-07T03:43:28;2.90;99.90
59855;DHT22;45732;52.850;6.896;2023-12-07T03:45:53;2.90;99.90
59855;DHT22;45732;52.850;6.896;2023-12-07T03:48:19;2.90;99.90
59855;DHT22;45732;52.850;6.896;2023-12-07T03:50:45;2.80;99.90
59855;DHT22;45732;52.850;6.896;2023-12-07T03:53:11;2.80;99.90
59855;DHT22;45732;52.850;6.896;2023-12-07T03:55:38;2.80;99.90
59855;DHT22;45732;52.850;6.896;2023-12-07T03:58:04;2.80;99.90
59855;DHT22;45732;52.850;6.896;2023-12-07T04:00:31;2.80;99.90
59855;DHT22;45732;52.850;6.896;2023-12-07T04:02:57;2.80;99.90
59855;DHT22;45732;52.850;6.896;2023-12-07T04:05:23;2.80;99.90
59855;DHT22;45732;52.850;6.896;2023-12-07T04:07:49;2.80;99.90
59855;DHT22;45732;52.850;6.896;2023-12-07T04:10:15;2.80;99.90
59855;DHT22;45732;52.850;6.896;2023-12-07T04:12:40;2.70;99.90
59855;DHT22;45732;52.850;6.896;2023-12-07T04:15:07;2.80;99.90
59855;DHT22;45732;52.850;6.896;2023-12-07T04:17:32;2.80;99.90
59855;DHT22;45732;52.850;6.896;2023-12-07T04:19:58;2.70;99.90
59855;DHT22;45732;52.850;6.896;2023-12-07T04:22:24;2.70;99.90
59855;DHT22;45732;52.850;6.896;2023-12-07T04:24:49;2.60;99.90
59855;DHT22;45732;52.850;6.896;2023-12-07T04:27:15;2.60;99.90
59855;DHT22;45732;52.850;6.896;2023-12-07T04:29:41;2.60;99.90
59855;DHT22;45732;52.850;6.896;2023-12-07T04:32:07;2.50;99.90
59855;DHT22;45732;52.850;6.896;2023-12-07T04:34:33;2.50;99.90
59855;DHT22;45732;52.850;6.896;2023-12-07T04:36:59;2.50;99.90
59855;DHT22;45732;52.850;6.896;2023-12-07T04:39:25;2.50;99.90
59855;DHT22;45732;52.850;6.896;2023-12-07T04:41:50;2.40;99.90
59855;DHT22;45732;52.850;6.896;2023-12-07T04:44:16;2.50;99.90
59855;DHT22;45732;52.850;6.896;2023-12-07T04:46:43;2.50;99.90
59855;DHT22;45732;52.850;6.896;2023-12-07T04:49:09;2.40;99.90
59855;DHT22;45732;52.850;6.896;2023-12-07T04:51:34;2.50;99.90
59855;DHT22;45732;52.850;6.896;2023-12-07T04:54:00;2.40;99.90
59855;DHT22;45732;52.850;6.896;2023-12-07T04:56:26;2.40;99.90
59855;DHT22;45732;52.850;6.896;2023-12-07T04:58:51;2.40;99.90
59855;DHT22;45732;52.850;6.896;2023-12-07T05:01:17;2.30;99.90
59855;DHT22;45732;52.850;6.896;2023-12-07T05:03:45;2.40;99.90
59855;DHT22;45732;52.850;6.896;2023-12-07T05:06:10;2.30;99.90
59855;DHT22;45732;52.850;6.896;2023-12-07T05:08:38;2.30;99.90
59855;DHT22;45732;52.850;6.896;2023-12-07T05:11:04;2.30;99.90
59855;DHT22;45732;52.850;6.896;2023-12-07T05:13:30;2.30;99.90
59855;DHT22;45732;52.850;6.896;2023-12-07T05:15:55;2.30;99.90
59855;DHT22;45732;52.850;6.896;2023-12-07T05:18:21;2.20;99.90
59855;DHT22;45732;52.850;6.896;2023-12-07T05:20:47;2.30;99.90
59855;DHT22;45732;52.850;6.896;2023-12-07T05:23:12;2.20;99.90
59855;DHT22;45732;52.850;6.896;2023-12-07T05:25:38;2.30;99.90
59855;DHT22;45732;52.850;6.896;2023-12-07T05:28:04;2.30;99.90
59855;DHT22;45732;52.850;6.896;2023-12-07T05:30:30;2.20;99.90
59855;DHT22;45732;52.850;6.896;2023-12-07T05:32:56;2.30;99.90
59855;DHT22;45732;52.850;6.896;2023-12-07T05:35:21;2.30;99.90
59855;DHT22;45732;52.850;6.896;2023-12-07T05:37:49;2.30;99.90
59855;DHT22;45732;52.850;6.896;2023-12-07T05:40:15;2.30;99.90
59855;DHT22;45732;52.850;6.896;2023-12-07T05:42:41;2.30;99.90
59855;DHT22;45732;52.850;6.896;2023-12-07T05:45:07;2.20;99.90
59855;DHT22;45732;52.850;6.896;2023-12-07T05:47:35;2.20;99.90
59855;DHT22;45732;52.850;6.896;2023-12-07T05:50:01;2.20;99.90
59855;DHT22;45732;52.850;6.896;2023-12-07T05:52:28;2.30;99.90
59855;DHT22;45732;52.850;6.896;2023-12-07T05:54:54;2.20;99.90
59855;DHT22;45732;52.850;6.896;2023-12-07T05:57:20;2.20;99.90
59855;DHT22;45732;52.850;6.896;2023-12-07T05:59:46;2.20;99.90
59855;DHT22;45732;52.850;6.896;2023-12-07T06:02:11;2.20;99.90
59855;DHT22;45732;52.850;6.896;2023-12-07T06:04:37;2.20;99.90
59855;DHT22;45732;52.850;6.896;2023-12-07T06:07:03;2.20;99.90
59855;DHT22;45732;52.850;6.896;2023-12-07T06:09:29;2.10;99.90
59855;DHT22;45732;52.850;6.896;2023-12-07T06:11:55;2.10;99.90
59855;DHT22;45732;52.850;6.896;2023-12-07T06:14:21;2.10;99.90
59855;DHT22;45732;52.850;6.896;2023-12-07T06:16:48;2.10;99.90
59855;DHT22;45732;52.850;6.896;2023-12-07T06:19:14;2.10;99.90
59855;DHT22;45732;52.850;6.896;2023-12-07T06:21:40;2.10;99.90
59855;DHT22;45732;52.850;6.896;2023-12-07T06:24:06;2.00;99.90
59855;DHT22;45732;52.850;6.896;2023-12-07T06:26:32;2.00;99.90
59855;DHT22;45732;52.850;6.896;2023-12-07T06:28:58;2.00;99.90
59855;DHT22;45732;52.850;6.896;2023-12-07T06:31:24;2.00;99.90
59855;DHT22;45732;52.850;6.896;2023-12-07T06:33:50;2.00;99.90
59855;DHT22;45732;52.850;6.896;2023-12-07T06:36:22;2.00;99.90
59855;DHT22;45732;52.850;6.896;2023-12-07T06:38:48;2.00;99.90
59855;DHT22;45732;52.850;6.896;2023-12-07T06:41:14;2.00;99.90
59855;DHT22;45732;52.850;6.896;2023-12-07T06:43:41;2.00;99.90
59855;DHT22;45732;52.850;6.896;2023-12-07T06:46:07;1.90;99.90
59855;DHT22;45732;52.850;6.896;2023-12-07T06:48:33;2.00;99.90
59855;DHT22;45732;52.850;6.896;2023-12-07T06:50:59;2.00;99.90
59855;DHT22;45732;52.850;6.896;2023-12-07T06:53:24;2.00;99.90
59855;DHT22;45732;52.850;6.896;2023-12-07T06:55:50;2.00;99.90
59855;DHT22;45732;52.850;6.896;2023-12-07T06:58:16;2.00;99.90
59855;DHT22;45732;52.850;6.896;2023-12-07T07:00:41;2.00;99.90
59855;DHT22;45732;52.850;6.896;2023-12-07T07:03:07;2.10;99.90
59855;DHT22;45732;52.850;6.896;2023-12-07T07:05:33;2.00;99.90
59855;DHT22;45732;52.850;6.896;2023-12-07T07:07:58;2.00;99.90
59855;DHT22;45732;52.850;6.896;2023-12-07T07:10:24;2.00;99.90
59855;DHT22;45732;52.850;6.896;2023-12-07T07:12:50;2.00;99.90
59855;DHT22;45732;52.850;6.896;2023-12-07T07:15:15;2.00;99.90
59855;DHT22;45732;52.850;6.896;2023-12-07T07:17:41;2.10;99.90
59855;DHT22;45732;52.850;6.896;2023-12-07T07:20:07;2.10;99.90
59855;DHT22;45732;52.850;6.896;2023-12-07T07:22:33;2.00;99.90
59855;DHT22;45732;52.850;6.896;2023-12-07T07:25:00;2.10;99.90
59855;DHT22;45732;52.850;6.896;2023-12-07T07:27:26;2.10;99.90
59855;DHT22;45732;52.850;6.896;2023-12-07T07:29:51;2.10;99.90
59855;DHT22;45732;52.850;6.896;2023-12-07T07:32:17;2.10;99.90
59855;DHT22;45732;52.850;6.896;2023-12-07T07:34:43;2.10;99.90
59855;DHT22;45732;52.850;6.896;2023-12-07T07:37:09;2.10;99.90
59855;DHT22;45732;52.850;6.896;2023-12-07T07:39:34;2.10;99.90
59855;DHT22;45732;52.850;6.896;2023-12-07T07:42:00;2.10;99.90
59855;DHT22;45732;52.850;6.896;2023-12-07T07:44:26;2.10;99.90
59855;DHT22;45732;52.850;6.896;2023-12-07T07:46:52;2.10;99.90
59855;DHT22;45732;52.850;6.896;2023-12-07T07:49:17;2.10;99.90
59855;DHT22;45732;52.850;6.896;2023-12-07T07:51:43;2.10;99.90
59855;DHT22;45732;52.850;6.896;2023-12-07T07:54:08;2.00;99.90
59855;DHT22;45732;52.850;6.896;2023-12-07T07:56:34;2.00;99.90
59855;DHT22;45732;52.850;6.896;2023-12-07T07:59:01;2.10;99.90
59855;DHT22;45732;52.850;6.896;2023-12-07T08:01:27;2.10;99.90
59855;DHT22;45732;52.850;6.896;2023-12-07T08:03:52;2.10;99.90
59855;DHT22;45732;52.850;6.896;2023-12-07T08:06:18;2.20;99.90
59855;DHT22;45732;52.850;6.896;2023-12-07T08:08:44;2.20;99.90
59855;DHT22;45732;52.850;6.896;2023-12-07T08:11:10;2.20;99.90
59855;DHT22;45732;52.850;6.896;2023-12-07T08:13:35;2.20;99.90
59855;DHT22;45732;52.850;6.896;2023-12-07T08:16:01;2.20;99.90
59855;DHT22;45732;52.850;6.896;2023-12-07T08:18:27;2.30;99.90
59855;DHT22;45732;52.850;6.896;2023-12-07T08:20:53;2.30;99.90
59855;DHT22;45732;52.850;6.896;2023-12-07T08:23:18;2.30;99.90
59855;DHT22;45732;52.850;6.896;2023-12-07T08:25:44;2.30;99.90
59855;DHT22;45732;52.850;6.896;2023-12-07T08:28:10;2.30;99.90
59855;DHT22;45732;52.850;6.896;2023-12-07T08:30:36;2.30;99.90
59855;DHT22;45732;52.850;6.896;2023-12-07T08:33:02;2.30;99.90
59855;DHT22;45732;52.850;6.896;2023-12-07T08:35:28;2.30;99.90
59855;DHT22;45732;52.850;6.896;2023-12-07T08:37:53;2.30;99.90
59855;DHT22;45732;52.850;6.896;2023-12-07T08:40:19;2.30;99.90
59855;DHT22;45732;52.850;6.896;2023-12-07T08:42:46;2.30;99.90
59855;DHT22;45732;52.850;6.896;2023-12-07T08:45:13;2.40;99.90
59855;DHT22;45732;52.850;6.896;2023-12-07T08:47:42;2.40;99.90
59855;DHT22;45732;52.850;6.896;2023-12-07T08:50:08;2.30;99.90
59855;DHT22;45732;52.850;6.896;2023-12-07T08:52:33;2.30;99.90
59855;DHT22;45732;52.850;6.896;2023-12-07T08:54:59;2.30;99.90
59855;DHT22;45732;52.850;6.896;2023-12-07T08:57:25;2.30;99.90
59855;DHT22;45732;52.850;6.896;2023-12-07T08:59:51;2.40;99.90
59855;DHT22;45732;52.850;6.896;2023-12-07T09:02:17;2.40;99.90
59855;DHT22;45732;52.850;6.896;2023-12-07T09:04:42;2.40;99.90
59855;DHT22;45732;52.850;6.896;2023-12-07T09:07:08;2.40;99.90
59855;DHT22;45732;52.850;6.896;2023-12-07T09:09:35;2.50;99.90
59855;DHT22;45732;52.850;6.896;2023-12-07T09:12:01;2.50;99.90
59855;DHT22;45732;52.850;6.896;2023-12-07T09:14:26;2.50;99.90
59855;DHT22;45732;52.850;6.896;2023-12-07T09:16:52;2.60;99.90
59855;DHT22;45732;52.850;6.896;2023-12-07T09:19:17;2.50;99.90
59855;DHT22;45732;52.850;6.896;2023-12-07T09:21:43;2.50;99.90
59855;DHT22;45732;52.850;6.896;2023-12-07T09:24:09;2.50;99.90
59855;DHT22;45732;52.850;6.896;2023-12-07T09:26:35;2.40;99.90
59855;DHT22;45732;52.850;6.896;2023-12-07T09:29:02;2.30;99.90
59855;DHT22;45732;52.850;6.896;2023-12-07T09:31:28;2.30;99.90
59855;DHT22;45732;52.850;6.896;2023-12-07T09:33:54;2.20;99.90
59855;DHT22;45732;52.850;6.896;2023-12-07T09:36:20;2.20;99.90
59855;DHT22;45732;52.850;6.896;2023-12-07T09:38:49;2.30;99.90
59855;DHT22;45732;52.850;6.896;2023-12-07T09:41:16;2.20;99.90
59855;DHT22;45732;52.850;6.896;2023-12-07T09:43:41;2.20;99.90
59855;DHT22;45732;52.850;6.896;2023-12-07T09:46:08;2.20;99.90
59855;DHT22;45732;52.850;6.896;2023-12-07T09:48:36;2.20;99.90
59855;DHT22;45732;52.850;6.896;2023-12-07T09:51:02;2.20;99.90
59855;DHT22;45732;52.850;6.896;2023-12-07T09:53:29;2.20;99.90
59855;DHT22;45732;52.850;6.896;2023-12-07T09:55:55;2.10;99.90
59855;DHT22;45732;52.850;6.896;2023-12-07T09:58:21;2.10;99.90
59855;DHT22;45732;52.850;6.896;2023-12-07T10:00:47;2.10;99.90
59855;DHT22;45732;52.850;6.896;2023-12-07T10:03:23;2.00;99.90
59855;DHT22;45732;52.850;6.896;2023-12-07T10:05:59;2.00;99.90
59855;DHT22;45732;52.850;6.896;2023-12-07T10:08:29;2.10;99.90
59855;DHT22;45732;52.850;6.896;2023-12-07T10:11:02;2.20;99.90
59855;DHT22;45732;52.850;6.896;2023-12-07T10:13:32;2.20;99.90
59855;DHT22;45732;52.850;6.896;2023-12-07T10:16:09;2.20;99.90
59855;DHT22;45732;52.850;6.896;2023-12-07T10:18:35;2.20;99.90
59855;DHT22;45732;52.850;6.896;2023-12-07T10:21:01;2.20;99.90
59855;DHT22;45732;52.850;6.896;2023-12-07T10:23:28;2.00;99.90
59855;DHT22;45732;52.850;6.896;2023-12-07T10:25:58;2.10;99.90
59855;DHT22;45732;52.850;6.896;2023-12-07T10:28:25;2.10;99.90
59855;DHT22;45732;52.850;6.896;2023-12-07T10:30:51;2.10;99.90
59855;DHT22;45732;52.850;6.896;2023-12-07T10:33:19;2.10;99.90
59855;DHT22;45732;52.850;6.896;2023-12-07T10:35:46;2.20;99.90
59855;DHT22;45732;52.850;6.896;2023-12-07T10:38:12;2.20;99.90
59855;DHT22;45732;52.850;6.896;2023-12-07T10:40:38;2.30;99.90
59855;DHT22;45732;52.850;6.896;2023-12-07T10:43:08;2.30;99.90
59855;DHT22;45732;52.850;6.896;2023-12-07T10:45:35;2.30;99.90
59855;DHT22;45732;52.850;6.896;2023-12-07T10:48:07;2.40;99.90
59855;DHT22;45732;52.850;6.896;2023-12-07T10:50:37;2.40;99.90
59855;DHT22;45732;52.850;6.896;2023-12-07T10:53:14;2.40;99.90
59855;DHT22;45732;52.850;6.896;2023-12-07T10:56:11;2.50;99.90
59855;DHT22;45732;52.850;6.896;2023-12-07T10:58:39;2.50;99.90
59855;DHT22;45732;52.850;6.896;2023-12-07T11:01:07;2.50;99.90
59855;DHT22;45732;52.850;6.896;2023-12-07T11:03:33;2.50;99.90
59855;DHT22;45732;52.850;6.896;2023-12-07T11:05:59;2.50;99.90
59855;DHT22;45732;52.850;6.896;2023-12-07T11:08:28;2.50;99.90
59855;DHT22;45732;52.850;6.896;2023-12-07T11:13:36;2.50;99.90
59855;DHT22;45732;52.850;6.896;2023-12-07T11:16:03;2.50;99.90
59855;DHT22;45732;52.850;6.896;2023-12-07T11:18:29;2.40;99.90
59855;DHT22;45732;52.850;6.896;2023-12-07T11:20:56;2.30;99.90
59855;DHT22;45732;52.850;6.896;2023-12-07T11:23:22;2.40;99.90
59855;DHT22;45732;52.850;6.896;2023-12-07T11:25:49;2.40;99.90
59855;DHT22;45732;52.850;6.896;2023-12-07T11:28:16;2.40;99.90
59855;DHT22;45732;52.850;6.896;2023-12-07T11:30:45;2.40;99.90
59855;DHT22;45732;52.850;6.896;2023-12-07T11:33:11;2.40;99.90
59855;DHT22;45732;52.850;6.896;2023-12-07T11:38:27;2.40;99.90
59855;DHT22;45732;52.850;6.896;2023-12-07T11:40:54;2.40;99.90
59855;DHT22;45732;52.850;6.896;2023-12-07T11:43:36;2.50;99.90
59855;DHT22;45732;52.850;6.896;2023-12-07T11:46:01;2.50;99.90
59855;DHT22;45732;52.850;6.896;2023-12-07T11:48:27;2.40;99.90
59855;DHT22;45732;52.850;6.896;2023-12-07T11:53:29;2.50;99.90
59855;DHT22;45732;52.850;6.896;2023-12-07T11:56:03;2.50;99.90
59855;DHT22;45732;52.850;6.896;2023-12-07T11:58:31;2.50;99.90
59855;DHT22;45732;52.850;6.896;2023-12-07T12:00:58;2.60;99.90
59855;DHT22;45732;52.850;6.896;2023-12-07T12:03:24;2.60;99.90
59855;DHT22;45732;52.850;6.896;2023-12-07T12:05:51;2.60;99.90
59855;DHT22;45732;52.850;6.896;2023-12-07T12:08:17;2.60;99.90
59855;DHT22;45732;52.850;6.896;2023-12-07T12:10:44;2.60;99.90
59855;DHT22;45732;52.850;6.896;2023-12-07T12:13:10;2.50;99.90
59855;DHT22;45732;52.850;6.896;2023-12-07T12:15:37;2.60;99.90
59855;DHT22;45732;52.850;6.896;2023-12-07T12:18:03;2.60;99.90
59855;DHT22;45732;52.850;6.896;2023-12-07T12:20:30;2.70;99.90
59855;DHT22;45732;52.850;6.896;2023-12-07T12:22:57;2.60;99.90
59855;DHT22;45732;52.850;6.896;2023-12-07T12:25:24;2.70;99.90
59855;DHT22;45732;52.850;6.896;2023-12-07T12:27:58;2.70;99.90
59855;DHT22;45732;52.850;6.896;2023-12-07T12:30:27;2.80;99.90
59855;DHT22;45732;52.850;6.896;2023-12-07T12:32:54;2.80;99.90
59855;DHT22;45732;52.850;6.896;2023-12-07T12:35:20;2.80;99.90
59855;DHT22;45732;52.850;6.896;2023-12-07T12:37:47;2.80;99.90
59855;DHT22;45732;52.850;6.896;2023-12-07T12:40:16;2.70;99.90
59855;DHT22;45732;52.850;6.896;2023-12-07T12:42:48;2.80;99.90
59855;DHT22;45732;52.850;6.896;2023-12-07T12:45:15;2.80;99.90
59855;DHT22;45732;52.850;6.896;2023-12-07T12:47:42;2.80;99.90
59855;DHT22;45732;52.850;6.896;2023-12-07T12:50:12;2.70;99.90
59855;DHT22;45732;52.850;6.896;2023-12-07T12:52:42;2.70;99.90
59855;DHT22;45732;52.850;6.896;2023-12-07T12:55:10;2.70;99.90
59855;DHT22;45732;52.850;6.896;2023-12-07T12:57:37;2.80;99.90
59855;DHT22;45732;52.850;6.896;2023-12-07T13:00:04;2.80;99.90
59855;DHT22;45732;52.850;6.896;2023-12-07T13:02:33;2.90;99.90
59855;DHT22;45732;52.850;6.896;2023-12-07T13:04:58;3.00;99.90
59855;DHT22;45732;52.850;6.896;2023-12-07T13:07:24;3.00;99.90
59855;DHT22;45732;52.850;6.896;2023-12-07T13:09:50;3.00;99.90
59855;DHT22;45732;52.850;6.896;2023-12-07T13:12:16;3.00;99.90
59855;DHT22;45732;52.850;6.896;2023-12-07T13:14:42;3.10;99.90
59855;DHT22;45732;52.850;6.896;2023-12-07T13:17:07;3.10;99.90
59855;DHT22;45732;52.850;6.896;2023-12-07T13:19:33;3.10;99.90
59855;DHT22;45732;52.850;6.896;2023-12-07T13:22:00;3.10;99.90
59855;DHT22;45732;52.850;6.896;2023-12-07T13:24:26;3.00;99.90
59855;DHT22;45732;52.850;6.896;2023-12-07T13:26:52;3.00;99.90
59855;DHT22;45732;52.850;6.896;2023-12-07T13:29:18;3.10;99.90
59855;DHT22;45732;52.850;6.896;2023-12-07T13:31:43;3.10;99.90
59855;DHT22;45732;52.850;6.896;2023-12-07T13:34:11;3.10;99.90
59855;DHT22;45732;52.850;6.896;2023-12-07T13:36:36;3.10;99.90
59855;DHT22;45732;52.850;6.896;2023-12-07T13:39:02;3.00;99.90
59855;DHT22;45732;52.850;6.896;2023-12-07T13:41:28;3.10;99.90
59855;DHT22;45732;52.850;6.896;2023-12-07T13:43:54;3.10;99.90
59855;DHT22;45732;52.850;6.896;2023-12-07T13:46:20;3.10;99.90
59855;DHT22;45732;52.850;6.896;2023-12-07T13:48:46;3.10;99.90
59855;DHT22;45732;52.850;6.896;2023-12-07T13:51:12;3.10;99.90
59855;DHT22;45732;52.850;6.896;2023-12-07T13:53:38;3.10;99.90
59855;DHT22;45732;52.850;6.896;2023-12-07T13:56:05;3.10;99.90
59855;DHT22;45732;52.850;6.896;2023-12-07T13:58:31;3.20;99.90
59855;DHT22;45732;52.850;6.896;2023-12-07T14:00:57;3.20;99.90
59855;DHT22;45732;52.850;6.896;2023-12-07T14:03:22;3.20;99.90
59855;DHT22;45732;52.850;6.896;2023-12-07T14:05:48;3.20;99.90
59855;DHT22;45732;52.850;6.896;2023-12-07T14:08:14;3.20;99.90
59855;DHT22;45732;52.850;6.896;2023-12-07T14:10:40;3.20;99.90
59855;DHT22;45732;52.850;6.896;2023-12-07T14:13:06;3.20;99.90
59855;DHT22;45732;52.850;6.896;2023-12-07T14:15:31;3.20;99.90
59855;DHT22;45732;52.850;6.896;2023-12-07T14:18:01;3.30;99.90
59855;DHT22;45732;52.850;6.896;2023-12-07T14:20:28;3.40;99.90
59855;DHT22;45732;52.850;6.896;2023-12-07T14:22:55;3.30;99.90
59855;DHT22;45732;52.850;6.896;2023-12-07T14:25:21;3.30;99.90
59855;DHT22;45732;52.850;6.896;2023-12-07T14:27:46;3.40;99.90
59855;DHT22;45732;52.850;6.896;2023-12-07T14:30:12;3.40;99.90
59855;DHT22;45732;52.850;6.896;2023-12-07T14:32:38;3.40;99.90
59855;DHT22;45732;52.850;6.896;2023-12-07T14:35:07;3.50;99.90
59855;DHT22;45732;52.850;6.896;2023-12-07T14:37:32;3.50;99.90
59855;DHT22;45732;52.850;6.896;2023-12-07T14:39:58;3.50;99.90
59855;DHT22;45732;52.850;6.896;2023-12-07T14:42:24;3.50;99.90
59855;DHT22;45732;52.850;6.896;2023-12-07T14:44:49;3.50;99.90
59855;DHT22;45732;52.850;6.896;2023-12-07T14:47:15;3.50;99.90
59855;DHT22;45732;52.850;6.896;2023-12-07T14:49:41;3.50;99.90
59855;DHT22;45732;52.850;6.896;2023-12-07T14:52:07;3.60;99.90
59855;DHT22;45732;52.850;6.896;2023-12-07T14:54:36;3.50;99.90
59855;DHT22;45732;52.850;6.896;2023-12-07T14:57:02;3.50;99.90
59855;DHT22;45732;52.850;6.896;2023-12-07T14:59:29;3.50;99.90
59855;DHT22;45732;52.850;6.896;2023-12-07T15:01:55;3.50;99.90
59855;DHT22;45732;52.850;6.896;2023-12-07T15:04:21;3.50;99.90
59855;DHT22;45732;52.850;6.896;2023-12-07T15:06:46;3.50;99.90
59855;DHT22;45732;52.850;6.896;2023-12-07T15:09:12;3.50;99.90
59855;DHT22;45732;52.850;6.896;2023-12-07T15:11:39;3.50;99.90
59855;DHT22;45732;52.850;6.896;2023-12-07T15:14:05;3.50;99.90
59855;DHT22;45732;52.850;6.896;2023-12-07T15:16:31;3.50;99.90
59855;DHT22;45732;52.850;6.896;2023-12-07T15:18:58;3.50;99.90
59855;DHT22;45732;52.850;6.896;2023-12-07T15:21:23;3.50;99.90
59855;DHT22;45732;52.850;6.896;2023-12-07T15:23:50;3.50;99.90
59855;DHT22;45732;52.850;6.896;2023-12-07T15:26:16;3.50;99.90
59855;DHT22;45732;52.850;6.896;2023-12-07T15:28:42;3.40;99.90
59855;DHT22;45732;52.850;6.896;2023-12-07T15:31:08;3.40;99.90
59855;DHT22;45732;52.850;6.896;2023-12-07T15:33:34;3.40;99.90
59855;DHT22;45732;52.850;6.896;2023-12-07T15:36:01;3.30;99.90
59855;DHT22;45732;52.850;6.896;2023-12-07T15:38:28;3.30;99.90
59855;DHT22;45732;52.850;6.896;2023-12-07T15:40:55;3.40;99.90
59855;DHT22;45732;52.850;6.896;2023-12-07T15:43:22;3.40;99.90
59855;DHT22;45732;52.850;6.896;2023-12-07T15:45:48;3.40;99.90
59855;DHT22;45732;52.850;6.896;2023-12-07T15:48:14;3.30;99.90
59855;DHT22;45732;52.850;6.896;2023-12-07T15:50:40;3.30;99.90
59855;DHT22;45732;52.850;6.896;2023-12-07T15:53:05;3.30;99.90